Time;durP1;ratioP1;P1;durP2;ratioP2;P2;SDS_P1;SDS_P2;PMS_P1;PMS_P2;Temp;Humidity;BMP_temperature;BMP_pressure;BME280_temperature;BME280_humidity;BME280_pressure;Samples;Min_cycle;Max_cycle;Signal;HPM_P1;HPM_P2
2022/07/17 00:00:26;;;;;;;4.15;3.22;;;;;;;;;;4358430;33;20202;-80
2022/07/17 00:02:52;;;;;;;5.50;3.20;;;;;;;;;;4358335;33;20583;-80
2022/07/17 00:05:18;;;;;;;8.00;3.65;;;;;;;;;;4358995;32;20266;-80
2022/07/17 00:07:46;;;;;;;4.47;3.10;;;;;;;;;;4360795;32;20601;-81
2022/07/17 00:10:12;;;;;;;4.68;3.70;;;;;;;;;;4360961;32;20576;-79
2022/07/17 00:12:38;;;;;;;7.62;3.08;;;;;;;;;;4347269;32;20291;-80
2022/07/17 00:15:04;;;;;;;5.47;3.08;;;;;;;;;;4361097;32;20203;-81
2022/07/17 00:17:30;;;;;;;4.65;3.10;;;;;;;;;;4360777;32;20663;-81
2022/07/17 00:19:56;;;;;;;6.62;3.12;;;;;;;;;;4359967;32;20269;-80
2022/07/17 00:22:21;;;;;;;5.18;3.22;;;;;;;;;;4347090;32;20230;-82
2022/07/17 00:24:49;;;;;;;12.70;3.25;;;;;;;;;;4360836;32;20245;-79
2022/07/17 00:27:15;;;;;;;4.22;3.47;;;;;;;;;;4360720;32;20535;-80
2022/07/17 00:29:41;;;;;;;4.07;3.37;;;;;;;;;;4360987;32;20261;-81
2022/07/17 00:32:07;;;;;;;4.97;3.53;;;;;;;;;;4359503;32;20710;-81
2022/07/17 00:34:33;;;;;;;5.82;2.87;;;;;;;;;;4360727;32;20206;-81
2022/07/17 00:36:58;;;;;;;4.75;3.55;;;;;;;;;;4360653;32;20230;-80
2022/07/17 00:39:24;;;;;;;5.07;3.67;;;;;;;;;;4360539;32;20198;-81
2022/07/17 00:41:50;;;;;;;6.25;2.62;;;;;;;;;;4360577;32;20229;-80
2022/07/17 00:44:17;;;;;;;3.62;2.95;;;;;;;;;;4360672;32;20604;-80
2022/07/17 00:46:43;;;;;;;4.25;3.70;;;;;;;;;;4360432;32;20498;-80
2022/07/17 00:49:09;;;;;;;5.57;3.05;;;;;;;;;;4360478;32;20225;-81
2022/07/17 00:51:35;;;;;;;5.20;3.30;;;;;;;;;;4346790;32;20575;-81
2022/07/17 00:54:02;;;;;;;3.95;3.20;;;;;;;;;;4360394;32;20536;-80
2022/07/17 00:56:29;;;;;;;3.55;3.10;;;;;;;;;;4360284;32;20658;-80
2022/07/17 00:58:55;;;;;;;6.12;3.70;;;;;;;;;;4359169;32;20498;-81
2022/07/17 01:01:21;;;;;;;10.55;3.53;;;;;;;;;;4346647;32;20591;-81
2022/07/17 01:03:47;;;;;;;6.43;2.80;;;;;;;;;;4347390;32;20537;-80
2022/07/17 01:06:13;;;;;;;4.70;3.80;;;;;;;;;;4360410;32;20706;-80
2022/07/17 01:08:40;;;;;;;4.43;3.28;;;;;;;;;;4359462;32;20588;-80
2022/07/17 01:11:09;;;;;;;3.97;2.92;;;;;;;;;;4359098;32;20796;-81
2022/07/17 01:13:35;;;;;;;8.57;3.75;;;;;;;;;;4360137;32;20678;-80
2022/07/17 01:16:01;;;;;;;4.18;3.62;;;;;;;;;;4346934;32;20514;-82
2022/07/17 01:18:27;;;;;;;4.53;3.33;;;;;;;;;;4358337;32;20673;-83
2022/07/17 01:20:54;;;;;;;7.43;3.60;;;;;;;;;;4346703;32;20556;-81
2022/07/17 01:23:20;;;;;;;7.50;3.80;;;;;;;;;;4346334;32;20587;-79
2022/07/17 01:26:07;;;;;;;7.03;3.60;;;;;;;;;;4346653;32;20621;-80
2022/07/17 01:28:34;;;;;;;8.48;3.92;;;;;;;;;;4346843;32;20556;-81
2022/07/17 01:31:03;;;;;;;7.45;3.22;;;;;;;;;;4359119;32;20638;-82
2022/07/17 01:33:31;;;;;;;7.62;3.17;;;;;;;;;;4359058;32;20654;-82
2022/07/17 01:35:58;;;;;;;4.68;3.30;;;;;;;;;;4360310;32;20312;-84
2022/07/17 01:38:24;;;;;;;4.07;3.22;;;;;;;;;;4360606;32;20650;-80
2022/07/17 01:40:51;;;;;;;6.22;3.80;;;;;;;;;;4358824;32;20606;-80
2022/07/17 01:43:17;;;;;;;6.35;3.42;;;;;;;;;;4359735;32;20656;-81
2022/07/17 01:45:43;;;;;;;10.13;4.12;;;;;;;;;;4359483;32;20540;-80
2022/07/17 01:48:08;;;;;;;7.18;3.72;;;;;;;;;;4359414;32;20194;-79
2022/07/17 01:50:34;;;;;;;5.95;3.85;;;;;;;;;;4359455;32;20222;-80
2022/07/17 01:53:00;;;;;;;7.43;4.12;;;;;;;;;;4359583;32;20203;-81
2022/07/17 01:55:26;;;;;;;5.57;4.15;;;;;;;;;;4359449;32;20477;-81
2022/07/17 01:57:52;;;;;;;15.95;4.57;;;;;;;;;;4359572;32;20198;-80
2022/07/17 02:00:20;;;;;;;8.35;4.78;;;;;;;;;;4359473;32;20689;-82
2022/07/17 02:02:47;;;;;;;6.75;4.47;;;;;;;;;;4359234;32;20628;-80
2022/07/17 02:05:13;;;;;;;8.43;4.72;;;;;;;;;;4359204;32;20689;-81
2022/07/17 02:07:39;;;;;;;12.55;5.60;;;;;;;;;;4359464;32;20571;-81
2022/07/17 02:10:07;;;;;;;11.07;4.28;;;;;;;;;;4359141;32;20706;-80
2022/07/17 02:12:33;;;;;;;8.73;5.03;;;;;;;;;;4359410;32;20581;-81
2022/07/17 02:14:59;;;;;;;9.13;5.18;;;;;;;;;;4359187;32;20234;-81
2022/07/17 02:17:24;;;;;;;6.55;4.43;;;;;;;;;;4359149;32;20194;-81
2022/07/17 02:19:50;;;;;;;7.18;4.65;;;;;;;;;;4359236;32;20352;-81
2022/07/17 02:22:16;;;;;;;10.68;4.37;;;;;;;;;;4345640;32;20337;-81
2022/07/17 02:24:42;;;;;;;7.10;4.40;;;;;;;;;;4345434;32;20238;-80
2022/07/17 02:27:07;;;;;;;8.18;4.97;;;;;;;;;;4358959;32;20190;-80
2022/07/17 02:29:33;;;;;;;13.80;4.93;;;;;;;;;;4358891;32;20222;-80
2022/07/17 02:31:59;;;;;;;9.25;4.78;;;;;;;;;;4358865;32;20194;-81
2022/07/17 02:34:24;;;;;;;10.30;5.60;;;;;;;;;;4359000;32;20230;-82
2022/07/17 02:36:50;;;;;;;5.93;4.00;;;;;;;;;;4358985;32;20198;-82
2022/07/17 02:39:16;;;;;;;6.80;4.68;;;;;;;;;;4358935;32;20226;-80
2022/07/17 02:41:41;;;;;;;4.50;4.10;;;;;;;;;;4359106;32;20273;-80
2022/07/17 02:44:07;;;;;;;6.45;4.30;;;;;;;;;;4358880;32;20210;-81
2022/07/17 02:46:33;;;;;;;7.93;4.20;;;;;;;;;;4358705;32;20226;-80
2022/07/17 02:48:58;;;;;;;10.65;4.45;;;;;;;;;;4358758;32;20198;-80
2022/07/17 02:51:24;;;;;;;6.47;4.37;;;;;;;;;;4358925;32;20230;-80
2022/07/17 02:53:50;;;;;;;6.12;4.20;;;;;;;;;;4358709;32;20199;-80
2022/07/17 02:56:16;;;;;;;5.60;3.47;;;;;;;;;;4344971;32;20285;-80
2022/07/17 02:58:42;;;;;;;12.57;4.37;;;;;;;;;;4358749;32;20297;-81
2022/07/17 03:01:07;;;;;;;3.85;3.35;;;;;;;;;;4357539;32;20293;-80
2022/07/17 03:03:33;;;;;;;7.60;4.20;;;;;;;;;;4358577;33;20371;-79
2022/07/17 03:05:58;;;;;;;4.97;4.12;;;;;;;;;;4358574;33;20194;-82
2022/07/17 03:08:24;;;;;;;8.73;4.85;;;;;;;;;;4358866;33;20202;-80
2022/07/17 03:10:50;;;;;;;5.18;4.05;;;;;;;;;;4358639;33;20191;-81
2022/07/17 03:13:16;;;;;;;5.18;4.40;;;;;;;;;;4358869;33;20194;-81
2022/07/17 03:15:42;;;;;;;6.50;4.20;;;;;;;;;;4358458;33;20194;-82
2022/07/17 03:18:07;;;;;;;11.40;4.47;;;;;;;;;;4358433;33;20540;-80
2022/07/17 03:20:35;;;;;;;6.72;5.12;;;;;;;;;;4358591;33;20266;-80
2022/07/17 03:23:01;;;;;;;6.85;5.25;;;;;;;;;;4358385;33;20678;-80
2022/07/17 03:25:27;;;;;;;6.50;4.75;;;;;;;;;;4358630;33;20327;-80
2022/07/17 03:27:52;;;;;;;9.45;4.50;;;;;;;;;;4358285;33;20245;-80
2022/07/17 03:30:18;;;;;;;7.30;4.82;;;;;;;;;;4345079;33;20305;-80
2022/07/17 03:32:44;;;;;;;9.43;4.07;;;;;;;;;;4358470;33;20241;-81
2022/07/17 03:35:09;;;;;;;10.13;4.47;;;;;;;;;;4358722;33;20220;-80
2022/07/17 03:37:37;;;;;;;11.25;4.82;;;;;;;;;;4344736;33;20276;-79
2022/07/17 03:40:05;;;;;;;8.52;5.00;;;;;;;;;;4358668;32;20517;-79
2022/07/17 03:42:31;;;;;;;15.82;5.70;;;;;;;;;;4361834;32;20635;-80
2022/07/17 03:44:57;;;;;;;5.65;4.30;;;;;;;;;;4361491;32;20252;-81
2022/07/17 03:47:23;;;;;;;10.55;4.78;;;;;;;;;;4347458;32;20222;-80
2022/07/17 03:49:49;;;;;;;6.62;4.12;;;;;;;;;;4361169;32;20230;-80
2022/07/17 03:52:15;;;;;;;11.55;4.37;;;;;;;;;;4361055;32;20675;-81
2022/07/17 03:54:41;;;;;;;6.93;4.80;;;;;;;;;;4361443;32;20203;-81
2022/07/17 03:57:06;;;;;;;5.85;4.20;;;;;;;;;;4361163;32;20301;-81
2022/07/17 03:59:32;;;;;;;9.00;4.90;;;;;;;;;;4347627;32;20223;-81
2022/07/17 04:01:58;;;;;;;8.25;5.45;;;;;;;;;;4347446;32;20230;-80
2022/07/17 04:04:23;;;;;;;16.87;5.87;;;;;;;;;;4361258;32;20206;-80
2022/07/17 04:06:49;;;;;;;15.30;5.87;;;;;;;;;;4360994;32;20226;-80
2022/07/17 04:09:15;;;;;;;9.38;4.57;;;;;;;;;;4361219;32;20211;-80
2022/07/17 04:11:41;;;;;;;8.85;4.20;;;;;;;;;;4360797;32;20270;-80
2022/07/17 04:14:07;;;;;;;7.32;5.50;;;;;;;;;;4361350;32;20569;-81
2022/07/17 04:16:33;;;;;;;5.53;4.07;;;;;;;;;;4360922;32;20402;-81
2022/07/17 04:18:58;;;;;;;11.63;4.05;;;;;;;;;;4361157;32;20244;-80
2022/07/17 04:21:24;;;;;;;4.75;4.22;;;;;;;;;;4360733;32;20252;-80
2022/07/17 04:23:50;;;;;;;4.93;3.55;;;;;;;;;;4361005;32;20221;-80
2022/07/17 04:26:16;;;;;;;6.18;4.20;;;;;;;;;;4360878;32;20539;-80
2022/07/17 04:28:42;;;;;;;6.18;4.47;;;;;;;;;;4360706;32;20223;-79
2022/07/17 04:31:08;;;;;;;6.53;5.40;;;;;;;;;;4347248;32;20226;-80
2022/07/17 04:33:34;;;;;;;6.78;5.03;;;;;;;;;;4360771;32;20697;-82
2022/07/17 04:35:59;;;;;;;8.52;4.82;;;;;;;;;;4360903;32;20194;-80
2022/07/17 04:38:25;;;;;;;11.10;5.15;;;;;;;;;;4347575;32;20231;-81
2022/07/17 04:40:51;;;;;;;10.70;5.00;;;;;;;;;;4346912;32;20226;-81
2022/07/17 04:43:17;;;;;;;5.85;5.05;;;;;;;;;;4347172;32;20301;-80
2022/07/17 04:45:43;;;;;;;9.43;5.40;;;;;;;;;;4360592;32;20221;-80
2022/07/17 04:48:09;;;;;;;7.97;4.95;;;;;;;;;;4346843;32;20244;-80
2022/07/17 04:50:34;;;;;;;7.03;4.90;;;;;;;;;;4360575;32;20312;-81
2022/07/17 04:53:01;;;;;;;8.23;5.03;;;;;;;;;;4359719;32;20225;-80
2022/07/17 04:55:27;;;;;;;12.00;5.80;;;;;;;;;;4360484;32;20837;-81
2022/07/17 04:57:53;;;;;;;7.28;5.62;;;;;;;;;;4360397;32;20564;-80
2022/07/17 05:00:20;;;;;;;7.12;5.40;;;;;;;;;;4360127;32;20667;-80
2022/07/17 05:02:45;;;;;;;8.57;5.85;;;;;;;;;;4360161;32;20677;-79
2022/07/17 05:05:11;;;;;;;6.47;5.40;;;;;;;;;;4360150;32;20226;-82
2022/07/17 05:07:37;;;;;;;5.47;3.97;;;;;;;;;;4360283;32;20615;-81
2022/07/17 05:10:04;;;;;;;5.97;5.12;;;;;;;;;;4360269;32;20203;-81
2022/07/17 05:12:30;;;;;;;10.05;5.00;;;;;;;;;;4360223;32;20485;-80
2022/07/17 05:14:56;;;;;;;11.73;5.28;;;;;;;;;;4359949;32;20331;-82
2022/07/17 05:17:24;;;;;;;8.50;5.78;;;;;;;;;;4360078;32;20537;-81
2022/07/17 05:19:51;;;;;;;10.90;5.35;;;;;;;;;;4359969;32;20588;-81
2022/07/17 05:22:16;;;;;;;7.47;5.12;;;;;;;;;;4360129;32;20646;-81
2022/07/17 05:24:42;;;;;;;12.75;5.57;;;;;;;;;;4359903;32;20207;-81
2022/07/17 05:27:08;;;;;;;6.55;5.20;;;;;;;;;;4359853;32;20218;-80
2022/07/17 05:29:36;;;;;;;7.07;4.50;;;;;;;;;;4360183;32;20199;-80
2022/07/17 05:32:02;;;;;;;7.43;4.80;;;;;;;;;;4359907;32;20654;-82
2022/07/17 05:34:28;;;;;;;8.63;5.75;;;;;;;;;;4360078;32;20595;-80
2022/07/17 05:36:54;;;;;;;7.32;4.80;;;;;;;;;;4359587;32;20548;-80
2022/07/17 05:39:20;;;;;;;4.85;4.22;;;;;;;;;;4345608;32;20230;-79
2022/07/17 05:41:46;;;;;;;8.95;5.15;;;;;;;;;;4359774;32;20858;-80
2022/07/17 05:44:12;;;;;;;6.53;4.15;;;;;;;;;;4360135;32;20273;-80
2022/07/17 05:46:38;;;;;;;6.85;4.03;;;;;;;;;;4360235;32;20203;-81
2022/07/17 05:49:03;;;;;;;6.47;4.47;;;;;;;;;;4360003;32;20238;-80
2022/07/17 05:51:29;;;;;;;5.45;4.22;;;;;;;;;;4359910;32;20198;-80
2022/07/17 05:53:55;;;;;;;7.75;4.00;;;;;;;;;;4359850;32;20214;-80
2022/07/17 05:56:20;;;;;;;7.35;4.25;;;;;;;;;;4359711;32;20295;-79
2022/07/17 05:58:46;;;;;;;5.57;3.90;;;;;;;;;;4359638;32;20352;-80
2022/07/17 06:01:13;;;;;;;9.25;3.67;;;;;;;;;;4346779;32;20571;-82
2022/07/17 06:03:38;;;;;;;12.45;4.30;;;;;;;;;;4359262;32;20646;-80
2022/07/17 06:06:04;;;;;;;6.12;4.37;;;;;;;;;;4359707;32;20213;-80
2022/07/17 06:08:30;;;;;;;5.72;4.85;;;;;;;;;;4359458;32;20379;-82
2022/07/17 06:10:56;;;;;;;4.47;4.03;;;;;;;;;;4358595;32;20218;-81
2022/07/17 06:13:21;;;;;;;9.18;4.60;;;;;;;;;;4359582;32;20222;-80
2022/07/17 06:15:48;;;;;;;11.10;5.68;;;;;;;;;;4360241;32;20191;-80
2022/07/17 06:18:13;;;;;;;8.93;5.60;;;;;;;;;;4359969;32;20656;-81
2022/07/17 06:20:39;;;;;;;7.62;5.57;;;;;;;;;;4359929;32;20254;-81
2022/07/17 06:23:05;;;;;;;9.98;4.60;;;;;;;;;;4360083;32;20249;-81
2022/07/17 06:25:31;;;;;;;7.05;4.40;;;;;;;;;;4360252;32;20346;-81
2022/07/17 06:27:57;;;;;;;6.12;3.47;;;;;;;;;;4358869;32;20359;-81
2022/07/17 06:30:22;;;;;;;7.85;4.82;;;;;;;;;;4359146;32;20634;-81
2022/07/17 06:32:50;;;;;;;5.53;4.15;;;;;;;;;;4360268;32;20226;-81
2022/07/17 06:35:16;;;;;;;7.75;4.97;;;;;;;;;;4360373;32;20639;-80
2022/07/17 06:37:43;;;;;;;6.70;4.12;;;;;;;;;;4358388;32;20696;-80
2022/07/17 06:40:09;;;;;;;6.65;2.90;;;;;;;;;;4359764;32;20611;-80
2022/07/17 06:42:35;;;;;;;3.25;2.72;;;;;;;;;;4360398;32;20234;-79
2022/07/17 06:45:01;;;;;;;7.18;2.87;;;;;;;;;;4361500;32;20211;-80
2022/07/17 06:47:28;;;;;;;3.70;2.85;;;;;;;;;;4347993;32;20529;-79
2022/07/17 06:49:54;;;;;;;8.30;2.72;;;;;;;;;;4361093;32;20244;-79
2022/07/17 06:52:19;;;;;;;5.53;2.50;;;;;;;;;;4346239;32;20501;-81
2022/07/17 06:54:45;;;;;;;4.72;2.12;;;;;;;;;;4359769;32;20225;-80
2022/07/17 06:57:11;;;;;;;2.45;1.87;;;;;;;;;;4359402;32;20257;-79
2022/07/17 06:59:37;;;;;;;4.30;1.90;;;;;;;;;;4359202;32;20622;-80
2022/07/17 07:02:03;;;;;;;3.00;1.83;;;;;;;;;;4359180;32;20207;-80
2022/07/17 07:04:28;;;;;;;5.93;2.20;;;;;;;;;;4359606;33;20245;-81
2022/07/17 07:06:54;;;;;;;3.45;2.00;;;;;;;;;;4359271;33;20294;-82
2022/07/17 07:09:20;;;;;;;6.28;2.33;;;;;;;;;;4359151;33;20198;-80
2022/07/17 07:11:45;;;;;;;7.20;3.00;;;;;;;;;;4359408;33;20237;-80
2022/07/17 07:14:11;;;;;;;2.47;1.92;;;;;;;;;;4345952;32;20245;-81
2022/07/17 07:16:37;;;;;;;3.08;2.67;;;;;;;;;;4361595;32;20282;-80
2022/07/17 07:19:03;;;;;;;2.37;1.73;;;;;;;;;;4362760;32;20226;-79
2022/07/17 07:21:29;;;;;;;2.92;2.08;;;;;;;;;;4362102;32;20582;-81
2022/07/17 07:23:54;;;;;;;4.30;2.40;;;;;;;;;;4362048;32;20222;-80
2022/07/17 07:26:21;;;;;;;7.35;2.97;;;;;;;;;;4362083;32;20317;-81
2022/07/17 07:28:47;;;;;;;2.80;2.10;;;;;;;;;;4361985;32;20788;-80
2022/07/17 07:31:12;;;;;;;6.57;2.35;;;;;;;;;;4362436;32;20253;-80
2022/07/17 07:33:38;;;;;;;5.28;1.70;;;;;;;;;;4348323;32;20235;-81
2022/07/17 07:36:04;;;;;;;7.87;4.12;;;;;;;;;;4348658;32;20218;-80
2022/07/17 07:38:30;;;;;;;5.07;3.80;;;;;;;;;;4361840;32;20659;-81
2022/07/17 07:40:56;;;;;;;5.12;2.22;;;;;;;;;;4362127;32;20281;-81
2022/07/17 07:43:22;;;;;;;4.22;2.72;;;;;;;;;;4348536;32;20284;-80
2022/07/17 07:45:47;;;;;;;5.65;2.55;;;;;;;;;;4362036;32;20253;-81
2022/07/17 07:48:13;;;;;;;4.20;2.03;;;;;;;;;;4361690;32;20249;-81
2022/07/17 07:50:39;;;;;;;3.37;1.77;;;;;;;;;;4362260;32;20229;-81
2022/07/17 07:53:05;;;;;;;3.87;2.20;;;;;;;;;;4361577;32;20575;-80
2022/07/17 07:55:31;;;;;;;3.60;1.80;;;;;;;;;;4361941;32;20611;-81
2022/07/17 07:58:08;;;;;;;3.40;2.55;;;;;;;;;;4361703;32;20371;-80
2022/07/17 08:00:34;;;;;;;2.90;1.60;;;;;;;;;;4361874;32;20551;-80
2022/07/17 08:03:00;;;;;;;10.13;2.15;;;;;;;;;;4361643;32;20518;-80
2022/07/17 08:05:26;;;;;;;3.03;1.60;;;;;;;;;;4361677;32;20229;-80
2022/07/17 08:07:51;;;;;;;3.08;1.80;;;;;;;;;;4361467;32;20218;-80
2022/07/17 08:10:17;;;;;;;5.03;2.33;;;;;;;;;;4361483;32;20194;-80
2022/07/17 08:12:43;;;;;;;5.82;2.50;;;;;;;;;;4347824;32;20238;-81
2022/07/17 08:15:09;;;;;;;3.97;1.75;;;;;;;;;;4361358;32;20199;-80
2022/07/17 08:17:35;;;;;;;4.97;1.83;;;;;;;;;;4361443;32;20656;-80
2022/07/17 08:20:01;;;;;;;3.28;1.80;;;;;;;;;;4361350;32;20216;-80
2022/07/17 08:22:26;;;;;;;2.53;1.75;;;;;;;;;;4347948;32;20302;-82
2022/07/17 08:24:52;;;;;;;5.18;2.53;;;;;;;;;;4361645;32;20217;-80
2022/07/17 08:27:18;;;;;;;3.40;1.73;;;;;;;;;;4361244;32;20218;-79
2022/07/17 08:29:43;;;;;;;4.22;2.08;;;;;;;;;;4361390;32;20244;-80
2022/07/17 08:32:09;;;;;;;5.78;1.75;;;;;;;;;;4361377;32;20349;-81
2022/07/17 08:34:35;;;;;;;5.60;2.22;;;;;;;;;;4361404;32;20230;-80
2022/07/17 08:37:01;;;;;;;6.68;2.05;;;;;;;;;;4361228;32;20194;-81
2022/07/17 08:39:26;;;;;;;3.95;1.87;;;;;;;;;;4360954;32;20273;-82
2022/07/17 08:41:52;;;;;;;2.08;1.75;;;;;;;;;;4361185;32;20256;-81
2022/07/17 08:44:18;;;;;;;5.62;2.67;;;;;;;;;;4359960;32;20342;-80
2022/07/17 08:46:44;;;;;;;3.20;2.12;;;;;;;;;;4361099;32;20228;-80
2022/07/17 08:49:11;;;;;;;3.47;1.75;;;;;;;;;;4360921;32;20249;-81
2022/07/17 08:51:37;;;;;;;5.22;1.83;;;;;;;;;;4347302;32;20605;-81
2022/07/17 08:54:03;;;;;;;4.87;1.67;;;;;;;;;;4360824;32;20249;-81
2022/07/17 08:56:29;;;;;;;10.45;1.73;;;;;;;;;;4347286;32;20598;-80
2022/07/17 08:58:55;;;;;;;2.67;1.73;;;;;;;;;;4361268;32;20635;-80
2022/07/17 09:01:22;;;;;;;3.20;2.40;;;;;;;;;;4361114;32;20253;-80
2022/07/17 09:04:05;;;;;;;3.47;1.92;;;;;;;;;;4344890;33;20552;-81
2022/07/17 09:06:32;;;;;;;4.43;2.30;;;;;;;;;;4346636;33;20525;-79
2022/07/17 09:09:10;;;;;;;5.70;1.70;;;;;;;;;;4345934;33;20593;-80
2022/07/17 09:11:50;;;;;;;3.95;1.90;;;;;;;;;;4346083;33;20576;-80
2022/07/17 09:14:17;;;;;;;6.68;2.53;;;;;;;;;;4345771;33;20630;-80
2022/07/17 09:17:00;;;;;;;12.40;2.47;;;;;;;;;;4345990;33;20564;-80
2022/07/17 09:19:40;;;;;;;2.58;2.00;;;;;;;;;;4345876;33;20604;-81
2022/07/17 09:22:22;;;;;;;4.05;2.08;;;;;;;;;;4345726;33;20825;-80
2022/07/17 09:24:56;;;;;;;6.07;2.12;;;;;;;;;;4345483;33;20584;-80
2022/07/17 09:30:50;;;;;;;3.22;1.80;;;;;;;;;;4345514;33;20237;-81
2022/07/17 09:33:22;;;;;;;2.78;2.12;;;;;;;;;;4345697;33;20624;-81
2022/07/17 09:36:09;;;;;;;6.05;1.58;;;;;;;;;;4332378;33;20553;-80
2022/07/17 09:38:39;;;;;;;3.42;1.58;;;;;;;;;;4343833;33;20686;-79
2022/07/17 09:41:17;;;;;;;2.35;1.77;;;;;;;;;;4345916;33;20604;-80
2022/07/17 09:43:46;;;;;;;2.90;1.83;;;;;;;;;;4344201;33;20644;-81
2022/07/17 09:46:15;;;;;;;1.55;1.40;;;;;;;;;;4345614;33;20592;-81
2022/07/17 09:48:47;;;;;;;8.18;2.30;;;;;;;;;;4331976;33;20630;-79
2022/07/17 09:51:18;;;;;;;4.10;2.00;;;;;;;;;;4345894;33;20658;-80
2022/07/17 09:53:49;;;;;;;3.30;1.62;;;;;;;;;;4345173;33;20607;-80
2022/07/17 09:56:18;;;;;;;4.72;1.77;;;;;;;;;;4345701;33;20634;-81
2022/07/17 09:59:11;;;;;;;1.73;1.48;;;;;;;;;;4345372;33;20645;-82
2022/07/17 10:01:39;;;;;;;8.30;1.87;;;;;;;;;;4344103;32;20719;-80
2022/07/17 10:04:06;;;;;;;3.83;1.70;;;;;;;;;;4346494;32;20594;-80
2022/07/17 10:06:32;;;;;;;4.60;2.30;;;;;;;;;;4360258;32;20596;-81
2022/07/17 10:08:59;;;;;;;7.50;2.05;;;;;;;;;;4360293;32;20651;-82
2022/07/17 10:11:31;;;;;;;3.53;2.08;;;;;;;;;;4360672;32;20528;-80
2022/07/17 10:14:05;;;;;;;2.47;1.73;;;;;;;;;;4360478;32;20683;-81
2022/07/17 10:16:32;;;;;;;2.20;1.80;;;;;;;;;;4360600;32;20644;-81
2022/07/17 10:19:02;;;;;;;2.55;1.60;;;;;;;;;;4360091;32;20611;-80
2022/07/17 10:21:31;;;;;;;2.58;1.85;;;;;;;;;;4360054;32;20633;-82
2022/07/17 10:23:57;;;;;;;7.15;1.83;;;;;;;;;;4346668;32;20707;-80
2022/07/17 10:26:48;;;;;;;4.40;1.90;;;;;;;;;;4359807;32;20248;-80
2022/07/17 10:29:28;;;;;;;2.55;2.25;;;;;;;;;;4346414;32;20725;-82
2022/07/17 10:31:55;;;;;;;4.15;2.30;;;;;;;;;;4360019;32;20591;-81
2022/07/17 10:34:39;;;;;;;2.42;1.67;;;;;;;;;;4359880;32;20604;-81
2022/07/17 10:37:16;;;;;;;1.62;1.52;;;;;;;;;;4359941;32;20532;-81
2022/07/17 10:39:53;;;;;;;5.12;2.22;;;;;;;;;;4359791;32;20728;-80
2022/07/17 10:42:43;;;;;;;2.15;1.85;;;;;;;;;;4359713;32;20623;-80
2022/07/17 10:45:16;;;;;;;2.87;2.15;;;;;;;;;;4359681;32;20592;-80
2022/07/17 10:47:50;;;;;;;2.35;1.65;;;;;;;;;;4359118;32;20651;-80
2022/07/17 10:50:17;;;;;;;1.65;1.52;;;;;;;;;;4359039;32;20600;-83
2022/07/17 10:52:43;;;;;;;3.42;1.87;;;;;;;;;;4359395;32;20627;-80
2022/07/17 10:55:21;;;;;;;2.67;2.20;;;;;;;;;;4359394;32;20213;-79
2022/07/17 10:57:48;;;;;;;4.60;1.95;;;;;;;;;;4359203;32;20742;-82
2022/07/17 11:00:16;;;;;;;3.12;1.90;;;;;;;;;;4359595;32;20520;-82
2022/07/17 11:02:42;;;;;;;2.25;2.03;;;;;;;;;;4359481;32;20636;-82
2022/07/17 11:05:13;;;;;;;3.80;2.03;;;;;;;;;;4346530;33;20572;-82
2022/07/17 11:07:53;;;;;;;3.50;2.00;;;;;;;;;;4359466;33;20677;-81
2022/07/17 11:10:20;;;;;;;2.22;1.80;;;;;;;;;;4359672;33;20600;-82
2022/07/17 11:12:46;;;;;;;2.35;1.55;;;;;;;;;;4358027;33;20623;-82
2022/07/17 11:15:13;;;;;;;2.67;2.10;;;;;;;;;;4359409;33;20221;-81
2022/07/17 11:17:45;;;;;;;3.92;1.95;;;;;;;;;;4359394;33;20604;-82
2022/07/17 11:20:11;;;;;;;5.22;2.00;;;;;;;;;;4359463;33;20580;-82
2022/07/17 11:22:36;;;;;;;3.33;2.42;;;;;;;;;;4359340;33;20328;-81
2022/07/17 11:25:05;;;;;;;3.45;1.35;;;;;;;;;;4345673;33;20226;-81
2022/07/17 11:27:31;;;;;;;3.12;2.15;;;;;;;;;;4359107;33;20648;-80
2022/07/17 11:29:59;;;;;;;3.80;2.05;;;;;;;;;;4357845;33;20666;-81
2022/07/17 11:32:37;;;;;;;2.33;2.00;;;;;;;;;;4359081;33;20704;-82
2022/07/17 11:35:23;;;;;;;5.62;2.12;;;;;;;;;;4359495;33;20680;-80
2022/07/17 11:37:52;;;;;;;3.05;1.90;;;;;;;;;;4358746;33;20720;-82
2022/07/17 11:40:18;;;;;;;5.00;2.30;;;;;;;;;;4359555;33;20563;-83
2022/07/17 11:42:44;;;;;;;5.10;1.80;;;;;;;;;;4359403;33;20198;-82
2022/07/17 11:45:10;;;;;;;1.60;1.50;;;;;;;;;;4359020;33;20231;-81
2022/07/17 11:47:37;;;;;;;3.33;2.00;;;;;;;;;;4359222;33;20664;-80
2022/07/17 11:50:20;;;;;;;9.88;2.15;;;;;;;;;;4358938;33;20608;-81
2022/07/17 11:52:50;;;;;;;1.60;1.30;;;;;;;;;;4359279;33;20567;-81
2022/07/17 11:55:17;;;;;;;3.83;2.20;;;;;;;;;;4345847;33;20587;-80
2022/07/17 11:57:47;;;;;;;2.28;1.85;;;;;;;;;;4359207;33;20556;-80
2022/07/17 12:00:16;;;;;;;3.00;1.52;;;;;;;;;;4345757;33;20614;-81
2022/07/17 12:02:43;;;;;;;2.20;1.73;;;;;;;;;;4361351;32;20644;-81
2022/07/17 12:05:09;;;;;;;2.72;2.08;;;;;;;;;;4348280;32;20587;-80
2022/07/17 12:07:41;;;;;;;4.85;2.20;;;;;;;;;;4361620;32;20654;-80
2022/07/17 12:10:18;;;;;;;1.85;1.52;;;;;;;;;;4348026;32;20695;-81
2022/07/17 12:13:06;;;;;;;6.85;2.05;;;;;;;;;;4361728;32;20533;-80
2022/07/17 12:15:39;;;;;;;3.25;2.08;;;;;;;;;;4348014;32;20565;-81
2022/07/17 12:18:19;;;;;;;2.42;2.22;;;;;;;;;;4361541;32;20567;-81
2022/07/17 12:20:50;;;;;;;3.70;2.28;;;;;;;;;;4361539;32;20584;-80
2022/07/17 12:23:37;;;;;;;3.15;2.00;;;;;;;;;;4361005;32;20575;-81
2022/07/17 12:26:11;;;;;;;2.60;2.05;;;;;;;;;;4361953;32;20632;-81
2022/07/17 12:28:38;;;;;;;5.78;1.87;;;;;;;;;;4361142;32;20625;-80
2022/07/17 12:31:07;;;;;;;2.33;1.73;;;;;;;;;;4361062;32;20718;-80
2022/07/17 12:33:34;;;;;;;5.43;2.30;;;;;;;;;;4361386;32;20501;-81
2022/07/17 12:36:00;;;;;;;3.85;2.08;;;;;;;;;;4361326;32;20591;-80
2022/07/17 12:38:25;;;;;;;3.53;2.00;;;;;;;;;;4347592;32;20564;-81
2022/07/17 12:40:51;;;;;;;9.07;1.98;;;;;;;;;;4347745;32;20206;-80
2022/07/17 12:43:17;;;;;;;4.62;1.90;;;;;;;;;;4361285;32;20297;-80
2022/07/17 12:45:43;;;;;;;4.62;1.90;;;;;;;;;;4361110;32;20237;-79
2022/07/17 12:48:09;;;;;;;2.50;1.77;;;;;;;;;;4361044;32;20310;-82
2022/07/17 12:50:34;;;;;;;3.15;1.90;;;;;;;;;;4360945;32;20265;-83
2022/07/17 12:53:00;;;;;;;2.17;1.92;;;;;;;;;;4361101;32;20216;-80
2022/07/17 12:55:26;;;;;;;1.80;1.55;;;;;;;;;;4347179;32;20250;-80
2022/07/17 12:57:52;;;;;;;4.20;2.40;;;;;;;;;;4347402;32;20245;-80
2022/07/17 13:00:17;;;;;;;5.97;2.30;;;;;;;;;;4360438;32;20240;-80
2022/07/17 13:02:43;;;;;;;5.72;2.40;;;;;;;;;;4360562;32;20302;-80
2022/07/17 13:05:12;;;;;;;6.80;2.60;;;;;;;;;;4360663;32;20667;-80
2022/07/17 13:07:38;;;;;;;3.72;2.00;;;;;;;;;;4347114;32;20571;-81
2022/07/17 13:10:05;;;;;;;4.03;2.10;;;;;;;;;;4360635;32;20226;-81
2022/07/17 13:12:30;;;;;;;2.67;1.70;;;;;;;;;;4360610;32;20552;-80
2022/07/17 13:14:56;;;;;;;2.83;1.80;;;;;;;;;;4347170;32;20215;-81
2022/07/17 13:17:25;;;;;;;8.52;1.77;;;;;;;;;;4360747;32;20211;-83
2022/07/17 13:19:50;;;;;;;4.32;2.65;;;;;;;;;;4346926;32;20533;-81
2022/07/17 13:22:16;;;;;;;2.17;1.95;;;;;;;;;;4360520;32;20498;-80
2022/07/17 13:24:42;;;;;;;3.67;2.47;;;;;;;;;;4360639;32;20249;-80
2022/07/17 13:27:08;;;;;;;2.40;1.87;;;;;;;;;;4360177;32;20210;-80
2022/07/17 13:29:33;;;;;;;5.93;2.45;;;;;;;;;;4360765;32;20186;-82
2022/07/17 13:31:59;;;;;;;6.05;1.90;;;;;;;;;;4360230;32;20203;-82
2022/07/17 13:34:25;;;;;;;2.53;2.08;;;;;;;;;;4360455;32;20195;-81
2022/07/17 13:36:51;;;;;;;7.87;1.52;;;;;;;;;;4358906;32;20630;-81
2022/07/17 13:39:17;;;;;;;4.05;2.00;;;;;;;;;;4346727;32;20642;-80
2022/07/17 13:41:43;;;;;;;3.50;2.12;;;;;;;;;;4346681;32;20651;-80
2022/07/17 13:44:09;;;;;;;3.97;2.12;;;;;;;;;;4360211;32;20630;-80
2022/07/17 13:46:35;;;;;;;2.83;1.87;;;;;;;;;;4359883;32;20655;-80
2022/07/17 13:49:03;;;;;;;3.40;1.77;;;;;;;;;;4360258;32;20548;-80
2022/07/17 13:51:29;;;;;;;3.12;1.85;;;;;;;;;;4359864;32;20708;-81
2022/07/17 13:53:58;;;;;;;3.85;2.33;;;;;;;;;;4359815;32;20593;-80
2022/07/17 13:56:25;;;;;;;3.70;2.70;;;;;;;;;;4359733;32;20656;-82
2022/07/17 13:58:52;;;;;;;2.92;1.95;;;;;;;;;;4360009;32;20592;-81
2022/07/17 14:01:19;;;;;;;2.50;1.90;;;;;;;;;;4358909;32;20701;-81
2022/07/17 14:03:44;;;;;;;2.95;1.95;;;;;;;;;;4359702;32;20556;-81
2022/07/17 14:06:10;;;;;;;3.25;1.80;;;;;;;;;;4359701;32;20314;-80
2022/07/17 14:08:37;;;;;;;3.22;2.30;;;;;;;;;;4359987;32;20217;-80
2022/07/17 14:11:03;;;;;;;6.25;1.70;;;;;;;;;;4359475;32;20665;-80
2022/07/17 14:13:29;;;;;;;2.58;2.20;;;;;;;;;;4359509;32;20639;-81
2022/07/17 14:15:56;;;;;;;2.35;2.03;;;;;;;;;;4345889;32;20612;-80
2022/07/17 14:18:22;;;;;;;2.78;1.80;;;;;;;;;;4359864;32;20690;-80
2022/07/17 14:20:47;;;;;;;3.85;1.85;;;;;;;;;;4346699;32;20309;-81
2022/07/17 14:23:13;;;;;;;2.20;2.00;;;;;;;;;;4359296;32;20186;-80
2022/07/17 14:25:39;;;;;;;6.47;2.12;;;;;;;;;;4359622;32;20233;-81
2022/07/17 14:28:05;;;;;;;4.05;1.85;;;;;;;;;;4345789;32;20349;-81
2022/07/17 14:30:32;;;;;;;2.85;1.90;;;;;;;;;;4359813;32;20212;-80
2022/07/17 14:32:58;;;;;;;6.85;1.92;;;;;;;;;;4359232;32;20624;-80
2022/07/17 14:35:24;;;;;;;3.67;1.87;;;;;;;;;;4358858;32;20646;-79
2022/07/17 14:37:49;;;;;;;2.83;1.50;;;;;;;;;;4359204;32;20222;-81
2022/07/17 14:40:16;;;;;;;3.62;2.00;;;;;;;;;;4359498;32;20257;-81
2022/07/17 14:42:41;;;;;;;3.05;2.08;;;;;;;;;;4359303;32;20635;-81
2022/07/17 14:45:08;;;;;;;2.15;1.65;;;;;;;;;;4359211;32;20364;-80